Time;durP1;ratioP1;P1;durP2;ratioP2;P2;SDS_P1;SDS_P2;PMS_P1;PMS_P2;Temp;Humidity;BMP_temperature;BMP_pressure;BME280_temperature;BME280_humidity;BME280_pressure;Samples;Min_cycle;Max_cycle;Signal;HPM_P1;HPM_P2
2023/01/10 00:01:32;;;;;;;1.20;0.23;;;7.70;99.90;9.10;95563.00;;;;5081467;28;20199;-86
2023/01/10 00:04:22;;;;;;;0.20;0.20;;;7.80;99.90;9.20;95573.00;;;;5089513;28;20202;-86
2023/01/10 00:07:10;;;;;;;0.30;0.30;;;7.80;99.90;8.90;95572.00;;;;5089459;28;20238;-86
2023/01/10 00:09:59;;;;;;;0.20;0.20;;;7.80;99.90;9.00;95581.00;;;;5078634;28;20199;-86
2023/01/10 00:15:56;;;;;;;0.30;0.30;;;7.80;99.90;9.00;95592.00;;;;5089231;28;20210;-86
2023/01/10 00:18:45;;;;;;;0.20;0.20;;;7.80;99.90;9.10;95583.00;;;;5089455;28;20203;-86
2023/01/10 00:21:35;;;;;;;0.40;0.30;;;7.80;99.90;9.10;95589.00;;;;5071169;28;20212;-89
2023/01/10 00:24:24;;;;;;;0.20;0.20;;;7.80;99.90;9.10;95585.00;;;;5089414;28;20302;-86
2023/01/10 00:27:19;;;;;;;0.33;0.33;;;7.80;99.90;9.10;95599.00;;;;5090012;28;20219;-86
2023/01/10 00:30:13;;;;;;;0.30;0.30;;;7.80;99.90;8.80;95594.00;;;;5093352;28;20214;-86
2023/01/10 00:33:04;;;;;;;0.20;0.20;;;7.70;99.90;8.90;95595.00;;;;5096160;28;20199;-86
2023/01/10 00:35:53;;;;;;;0.30;0.30;;;7.70;99.90;9.20;95596.00;;;;5087138;28;20249;-86
2023/01/10 00:38:43;;;;;;;0.20;0.20;;;7.70;99.90;9.20;95610.00;;;;5090089;28;20203;-86
2023/01/10 00:44:46;;;;;;;0.30;0.30;;;7.70;99.20;9.00;95628.00;;;;5060541;28;20328;-87
2023/01/10 00:47:35;;;;;;;0.27;0.27;;;7.80;99.50;8.90;95615.00;;;;5086157;28;20226;-86
2023/01/10 00:50:24;;;;;;;0.30;0.30;;;7.70;99.40;8.90;95620.00;;;;5081533;28;20233;-88
2023/01/10 00:53:13;;;;;;;0.40;0.40;;;7.70;99.40;8.90;95604.00;;;;5094018;28;20607;-88
2023/01/10 00:56:03;;;;;;;0.23;0.20;;;7.70;98.90;9.00;95610.00;;;;5091998;28;20232;-87
2023/01/10 00:58:52;;;;;;;0.20;0.20;;;7.70;99.20;8.70;95621.00;;;;5093924;28;20212;-86
2023/01/10 01:01:40;;;;;;;0.53;0.30;;;7.70;98.70;9.00;95637.00;;;;5087885;28;20198;-86
2023/01/10 01:04:32;;;;;;;0.23;0.23;;;7.70;99.00;9.00;95628.00;;;;5093644;28;20750;-86
2023/01/10 01:07:21;;;;;;;0.77;0.27;;;7.60;98.80;9.10;95638.00;;;;5093404;28;20545;-86
2023/01/10 01:10:26;;;;;;;0.20;0.20;;;7.70;98.90;9.00;95653.00;;;;5092665;28;20215;-86
2023/01/10 01:13:19;;;;;;;0.20;0.20;;;7.70;98.20;9.10;95636.00;;;;5086985;28;20207;-88
2023/01/10 01:16:08;;;;;;;0.20;0.20;;;7.70;98.80;9.00;95645.00;;;;5093367;28;20223;-86
2023/01/10 01:18:58;;;;;;;0.20;0.20;;;7.60;98.40;9.00;95642.00;;;;5092382;28;20206;-86
2023/01/10 01:21:46;;;;;;;0.30;0.30;;;7.60;98.70;9.00;95652.00;;;;5085878;28;20229;-86
2023/01/10 01:24:35;;;;;;;0.30;0.30;;;7.60;98.60;8.80;95653.00;;;;5093043;28;20253;-86
2023/01/10 01:27:24;;;;;;;0.27;0.27;;;7.50;98.40;8.60;95648.00;;;;5092114;28;20300;-87
2023/01/10 01:30:15;;;;;;;0.20;0.20;;;7.60;97.90;8.90;95672.00;;;;5093017;28;20195;-86
2023/01/10 01:33:04;;;;;;;0.30;0.30;;;7.60;97.80;9.00;95662.00;;;;5090386;28;20251;-86
2023/01/10 01:35:53;;;;;;;0.20;0.20;;;7.60;97.60;8.90;95660.00;;;;5092648;28;20230;-87
2023/01/10 01:38:41;;;;;;;0.50;0.30;;;7.70;98.00;8.70;95667.00;;;;5090057;28;20202;-86
2023/01/10 01:44:39;;;;;;;0.20;0.20;;;7.60;97.50;8.90;95672.00;;;;5091578;28;20292;-86
2023/01/10 01:47:29;;;;;;;0.60;0.33;;;7.70;97.10;8.70;95686.00;;;;5091267;28;20217;-86
2023/01/10 01:50:21;;;;;;;0.63;0.30;;;7.70;96.90;8.80;95668.00;;;;5079036;28;20223;-86
2023/01/10 01:53:16;;;;;;;0.20;0.20;;;7.70;97.00;8.90;95681.00;;;;5091681;28;20203;-86
2023/01/10 01:56:11;;;;;;;0.30;0.30;;;7.70;96.90;8.60;95658.00;;;;5092906;28;20281;-90
2023/01/10 01:59:06;;;;;;;0.20;0.20;;;7.70;96.80;8.70;95677.00;;;;5091431;28;20207;-86
2023/01/10 02:02:03;;;;;;;0.30;0.30;;;7.70;96.70;8.80;95687.00;;;;5091582;28;20676;-86
2023/01/10 02:04:56;;;;;;;0.20;0.20;;;7.70;96.40;8.90;95701.00;;;;5090840;28;20461;-86
2023/01/10 02:07:49;;;;;;;0.60;0.37;;;7.70;96.70;8.90;95680.00;;;;5090719;28;20223;-86
2023/01/10 02:10:47;;;;;;;0.30;0.20;;;7.70;96.20;8.90;95674.00;;;;5092496;28;20203;-87
2023/01/10 02:13:40;;;;;;;0.27;0.27;;;7.70;96.60;8.90;95669.00;;;;5091392;28;20585;-86
2023/01/10 02:16:29;;;;;;;0.20;0.20;;;7.60;96.30;8.70;95661.00;;;;5091265;28;20227;-86
2023/01/10 02:19:31;;;;;;;0.20;0.20;;;7.60;96.10;8.70;95673.00;;;;5090746;28;20214;-88
2023/01/10 02:23:16;;;;;;;0.30;0.30;;;7.60;96.40;8.90;95676.00;;;;5090962;28;20194;-86
2023/01/10 02:26:54;;;;;;;0.30;0.30;;;7.60;96.30;8.90;95686.00;;;;5091458;28;20670;-86
2023/01/10 02:30:17;;;;;;;0.30;0.30;;;7.50;96.10;8.40;95662.00;;;;5090442;28;20192;-87
2023/01/10 02:33:17;;;;;;;0.60;0.40;;;7.50;95.20;8.90;95694.00;;;;5090238;28;20207;-87
2023/01/10 02:36:21;;;;;;;0.30;0.30;;;7.60;95.30;9.00;95686.00;;;;5082690;28;20712;-86
2023/01/10 02:39:17;;;;;;;0.20;0.20;;;7.60;95.30;8.90;95672.00;;;;5089889;28;20203;-87
2023/01/10 02:42:09;;;;;;;0.30;0.30;;;7.60;95.40;8.80;95677.00;;;;5090811;28;20196;-86
2023/01/10 02:45:05;;;;;;;0.20;0.20;;;7.60;94.50;8.80;95670.00;;;;5090306;28;20733;-86
2023/01/10 02:47:55;;;;;;;0.33;0.23;;;7.60;94.70;8.90;95674.00;;;;5085816;28;20604;-86
2023/01/10 02:50:54;;;;;;;0.20;0.20;;;7.60;94.60;9.00;95686.00;;;;5091829;28;20199;-86
2023/01/10 02:53:46;;;;;;;0.20;0.20;;;7.70;95.10;9.00;95670.00;;;;5089668;28;20192;-86
2023/01/10 02:57:23;;;;;;;0.20;0.20;;;7.60;95.00;8.90;95677.00;;;;5090026;28;20230;-87
2023/01/10 03:00:45;;;;;;;0.20;0.20;;;7.60;94.30;9.00;95684.00;;;;5090138;28;20199;-86
2023/01/10 03:03:40;;;;;;;1.40;0.27;;;7.60;94.10;8.70;95680.00;;;;5058912;28;20238;-89
2023/01/10 03:06:35;;;;;;;0.30;0.30;;;7.60;93.80;8.70;95673.00;;;;5090170;28;20220;-88
2023/01/10 03:09:32;;;;;;;0.20;0.20;;;7.70;93.50;9.00;95684.00;;;;5089233;28;20614;-87
2023/01/10 03:12:28;;;;;;;0.67;0.27;;;7.70;93.80;8.90;95705.00;;;;5089018;28;20192;-86
2023/01/10 03:15:20;;;;;;;0.30;0.30;;;7.70;93.60;8.90;95687.00;;;;5088681;28;20635;-86
2023/01/10 03:18:16;;;;;;;0.20;0.20;;;7.70;93.50;8.60;95674.00;;;;5088953;28;20550;-90
2023/01/10 03:21:07;;;;;;;0.30;0.30;;;7.70;93.20;9.00;95699.00;;;;5090804;28;20221;-86
2023/01/10 03:24:03;;;;;;;0.40;0.30;;;7.70;93.50;8.80;95687.00;;;;5091160;28;20202;-85
2023/01/10 03:26:58;;;;;;;0.20;0.20;;;7.70;93.50;8.80;95680.00;;;;5090524;28;20231;-88
2023/01/10 03:29:54;;;;;;;0.20;0.20;;;7.70;93.20;9.10;95695.00;;;;5089719;28;20196;-86
2023/01/10 03:32:44;;;;;;;0.20;0.20;;;7.80;93.40;8.50;95671.00;;;;5088664;28;20213;-88
2023/01/10 03:35:44;;;;;;;0.20;0.20;;;7.80;92.70;9.00;95718.00;;;;5087060;28;20726;-87
2023/01/10 03:38:46;;;;;;;0.20;0.20;;;7.80;92.40;9.20;95706.00;;;;5086826;28;20199;-86
2023/01/10 03:41:43;;;;;;;0.30;0.30;;;7.90;92.30;9.00;95722.00;;;;5090143;28;20194;-86
2023/01/10 03:44:44;;;;;;;0.23;0.23;;;7.80;92.40;9.10;95722.00;;;;5095407;28;20207;-86
2023/01/10 03:47:40;;;;;;;0.30;0.30;;;7.80;92.10;8.60;95726.00;;;;5094689;28;20225;-87
2023/01/10 03:50:30;;;;;;;0.27;0.20;;;7.80;92.00;9.10;95741.00;;;;5080266;28;20279;-86
2023/01/10 03:53:19;;;;;;;0.30;0.30;;;7.90;92.50;9.10;95741.00;;;;5089819;28;20620;-87
2023/01/10 03:56:08;;;;;;;0.20;0.20;;;7.80;92.80;8.90;95761.00;;;;5088449;28;20227;-88
2023/01/10 03:58:59;;;;;;;0.20;0.20;;;7.80;93.00;8.70;95752.00;;;;5089929;28;20577;-87
2023/01/10 04:01:48;;;;;;;1.43;0.30;;;7.80;92.40;9.10;95765.00;;;;5089971;28;20211;-85
2023/01/10 04:04:37;;;;;;;0.20;0.20;;;7.80;92.60;8.50;95739.00;;;;5089081;28;20691;-89
2023/01/10 04:07:26;;;;;;;0.20;0.20;;;7.80;92.30;8.80;95764.00;;;;5088804;28;20658;-87
2023/01/10 04:10:15;;;;;;;0.20;0.20;;;7.80;92.40;9.00;95787.00;;;;5089580;28;20752;-88
2023/01/10 04:13:05;;;;;;;0.50;0.30;;;7.80;92.40;8.60;95754.00;;;;5088497;28;20664;-91
2023/01/10 04:15:55;;;;;;;0.30;0.30;;;7.80;92.10;8.60;95777.00;;;;5089827;28;20211;-86
2023/01/10 04:18:44;;;;;;;0.20;0.20;;;7.80;92.00;8.70;95739.00;;;;5089210;28;20244;-88
2023/01/10 04:21:32;;;;;;;0.30;0.30;;;7.80;92.00;8.80;95777.00;;;;5089449;28;20707;-87
2023/01/10 04:24:21;;;;;;;0.20;0.20;;;7.80;91.90;8.70;95791.00;;;;5089196;28;20675;-89
2023/01/10 04:27:10;;;;;;;0.23;0.23;;;7.80;91.80;8.80;95777.00;;;;5086866;28;20714;-86
2023/01/10 04:29:59;;;;;;;5.60;0.40;;;7.80;91.70;9.10;95806.00;;;;5089072;28;20207;-86
2023/01/10 04:32:49;;;;;;;0.20;0.20;;;7.80;91.90;9.10;95800.00;;;;5089049;28;20203;-86
2023/01/10 04:35:38;;;;;;;1.50;0.30;;;7.80;92.10;8.60;95811.00;;;;5089018;28;20757;-87
2023/01/10 04:38:27;;;;;;;0.67;0.30;;;7.80;91.40;8.70;95827.00;;;;5088193;28;20199;-86
2023/01/10 04:41:15;;;;;;;0.50;0.40;;;7.70;91.40;9.00;95821.00;;;;5089209;28;20214;-86
2023/01/10 04:44:05;;;;;;;0.20;0.20;;;7.80;91.80;9.10;95843.00;;;;5089559;28;20203;-86
2023/01/10 04:46:54;;;;;;;0.30;0.30;;;7.80;91.70;9.00;95832.00;;;;5083792;28;20212;-86
2023/01/10 04:49:44;;;;;;;0.50;0.50;;;7.70;91.00;8.90;95822.00;;;;5088638;28;20240;-87
2023/01/10 04:52:32;;;;;;;0.20;0.20;;;7.70;90.80;8.90;95823.00;;;;5095218;28;20226;-86
2023/01/10 04:55:22;;;;;;;0.30;0.30;;;7.80;91.30;8.60;95827.00;;;;5095267;28;20253;-92
2023/01/10 04:58:11;;;;;;;0.30;0.30;;;7.80;91.20;9.00;95850.00;;;;5088438;28;20596;-86
2023/01/10 05:01:00;;;;;;;0.53;0.30;;;7.80;90.70;9.10;95850.00;;;;5089323;28;21191;-86
2023/01/10 05:03:49;;;;;;;0.50;0.30;;;7.80;91.00;9.10;95858.00;;;;5090284;28;20203;-89
2023/01/10 05:06:39;;;;;;;0.20;0.20;;;7.80;90.70;8.80;95860.00;;;;5085733;28;20227;-87
2023/01/10 05:09:28;;;;;;;0.30;0.30;;;7.80;91.00;9.00;95863.00;;;;5086049;28;20200;-86
2023/01/10 05:12:17;;;;;;;0.23;0.23;;;7.80;90.90;9.20;95870.00;;;;5089529;28;20203;-86
2023/01/10 05:15:07;;;;;;;0.30;0.30;;;7.80;91.00;9.20;95871.00;;;;5086970;28;20202;-86
2023/01/10 05:17:58;;;;;;;2.00;0.30;;;7.80;91.20;8.90;95884.00;;;;5094168;28;20227;-85
2023/01/10 05:20:47;;;;;;;0.40;0.20;;;7.70;90.80;8.90;95868.00;;;;5090474;28;20203;-86
2023/01/10 05:23:38;;;;;;;0.20;0.20;;;7.80;90.90;8.90;95882.00;;;;5093058;28;20233;-86
2023/01/10 05:26:27;;;;;;;0.20;0.20;;;7.80;91.00;9.10;95896.00;;;;5092947;28;20709;-86
2023/01/10 05:29:16;;;;;;;0.20;0.20;;;7.80;91.20;8.30;95862.00;;;;5092384;28;20196;-89
2023/01/10 05:32:05;;;;;;;0.87;0.40;;;7.70;90.70;8.80;95876.00;;;;5092694;28;20227;-86
2023/01/10 05:34:53;;;;;;;0.20;0.20;;;7.80;91.40;8.80;95901.00;;;;5090696;28;20230;-86
2023/01/10 05:37:42;;;;;;;0.20;0.20;;;7.70;91.00;8.60;95896.00;;;;5091597;28;20275;-87
2023/01/10 05:40:32;;;;;;;0.30;0.30;;;7.70;91.10;9.00;95926.00;;;;5082977;28;20361;-87
2023/01/10 05:43:21;;;;;;;0.20;0.20;;;7.70;91.50;8.90;95921.00;;;;5096862;28;20210;-87
2023/01/10 05:46:10;;;;;;;0.30;0.30;;;7.70;91.10;8.70;95894.00;;;;5095479;28;20215;-88
2023/01/10 05:48:58;;;;;;;0.20;0.20;;;7.70;91.20;8.70;95912.00;;;;5086970;28;20207;-86
2023/01/10 05:51:47;;;;;;;0.20;0.20;;;7.70;91.00;8.60;95912.00;;;;5090890;28;20207;-87
2023/01/10 05:54:36;;;;;;;0.20;0.20;;;7.70;91.10;8.70;95927.00;;;;5093748;28;20262;-86
2023/01/10 05:57:26;;;;;;;0.20;0.20;;;7.70;90.80;8.60;95926.00;;;;5091232;28;20736;-88
2023/01/10 06:00:16;;;;;;;0.60;0.60;;;7.70;90.90;8.50;95930.00;;;;5080144;28;20249;-87
2023/01/10 06:03:05;;;;;;;0.70;0.47;;;7.70;90.60;8.90;95934.00;;;;5091232;28;20210;-86
2023/01/10 06:05:55;;;;;;;0.30;0.20;;;7.70;90.90;8.80;95938.00;;;;5091666;28;20215;-86
2023/01/10 06:08:49;;;;;;;0.20;0.20;;;7.70;90.90;8.90;95927.00;;;;5091505;28;20203;-88
2023/01/10 06:11:38;;;;;;;0.20;0.20;;;7.70;90.90;8.70;95935.00;;;;5092384;28;20208;-87
2023/01/10 06:14:28;;;;;;;0.20;0.20;;;7.70;90.90;9.00;95950.00;;;;5090071;28;20314;-87
2023/01/10 06:17:16;;;;;;;0.63;0.40;;;7.70;90.80;8.60;95926.00;;;;5089507;28;20614;-90
2023/01/10 06:20:07;;;;;;;0.43;0.20;;;7.70;90.70;8.90;95947.00;;;;5091942;28;20199;-86
2023/01/10 06:22:57;;;;;;;0.30;0.30;;;7.70;90.90;8.80;95952.00;;;;5090921;28;20265;-87
2023/01/10 06:25:46;;;;;;;0.83;0.30;;;7.70;90.40;8.80;95994.00;;;;5088030;28;20206;-88
2023/01/10 06:28:36;;;;;;;0.30;0.23;;;7.80;90.90;8.60;95982.00;;;;5095384;28;20195;-92
2023/01/10 06:31:26;;;;;;;0.43;0.30;;;7.70;90.90;8.80;95998.00;;;;5090361;28;20203;-90
2023/01/10 06:34:15;;;;;;;0.33;0.30;;;7.80;91.20;8.70;95997.00;;;;5090067;28;20196;-87
2023/01/10 06:37:04;;;;;;;0.20;0.20;;;7.70;91.20;8.90;96011.00;;;;5083177;28;20223;-87
2023/01/10 06:39:53;;;;;;;0.40;0.40;;;7.70;91.60;9.00;96007.00;;;;5090160;28;20203;-86
2023/01/10 06:42:42;;;;;;;1.70;1.60;;;7.70;91.70;8.90;96010.00;;;;5104536;28;20260;-87
2023/01/10 06:45:31;;;;;;;0.20;0.20;;;7.70;91.80;8.70;96021.00;;;;5093715;28;20710;-89
2023/01/10 06:48:21;;;;;;;0.40;0.40;;;7.60;91.40;9.00;96021.00;;;;5087556;28;20195;-86
2023/01/10 06:51:10;;;;;;;0.40;0.40;;;7.70;91.80;8.80;96027.00;;;;5086582;28;20211;-87
2023/01/10 06:53:58;;;;;;;0.27;0.27;;;7.70;91.80;8.90;96043.00;;;;5090001;28;20192;-87
2023/01/10 06:56:48;;;;;;;0.37;0.37;;;7.60;91.90;8.50;96031.00;;;;5090480;28;20223;-88
2023/01/10 06:59:37;;;;;;;0.30;0.30;;;7.60;91.80;8.80;96058.00;;;;5088280;28;20256;-86
2023/01/10 07:02:25;;;;;;;0.20;0.20;;;7.60;92.30;8.70;96065.00;;;;5089516;28;20274;-87
2023/01/10 07:05:16;;;;;;;0.40;0.40;;;7.60;92.20;8.90;96068.00;;;;5089160;28;20207;-86
2023/01/10 07:08:05;;;;;;;0.30;0.30;;;7.60;92.00;8.90;96084.00;;;;5085883;28;20299;-85
2023/01/10 07:10:54;;;;;;;0.70;0.53;;;7.60;92.30;9.00;96097.00;;;;5088324;28;20591;-86
2023/01/10 07:13:43;;;;;;;0.30;0.30;;;7.60;92.50;8.90;96092.00;;;;5089553;28;20199;-86
2023/01/10 07:16:31;;;;;;;0.40;0.23;;;7.50;92.60;8.80;96097.00;;;;5089247;28;20211;-86
2023/01/10 07:19:20;;;;;;;0.30;0.30;;;7.50;92.40;9.00;96128.00;;;;5089374;28;20210;-86
2023/01/10 07:22:11;;;;;;;0.30;0.30;;;7.50;92.50;8.70;96125.00;;;;5089701;28;20202;-88
2023/01/10 07:25:00;;;;;;;0.30;0.30;;;7.60;92.40;9.10;96153.00;;;;5090526;28;20281;-86
2023/01/10 07:27:48;;;;;;;0.20;0.20;;;7.50;92.50;8.50;96139.00;;;;5088849;28;20221;-86
2023/01/10 07:30:38;;;;;;;0.20;0.20;;;7.50;92.30;8.90;96155.00;;;;5088298;28;20279;-89
2023/01/10 07:33:26;;;;;;;0.40;0.30;;;7.50;92.60;8.80;96142.00;;;;5077460;28;20199;-86
2023/01/10 07:36:15;;;;;;;0.53;0.40;;;7.50;92.20;9.10;96166.00;;;;5087630;28;20215;-86
2023/01/10 07:39:06;;;;;;;0.37;0.30;;;7.60;92.40;9.00;96166.00;;;;5078148;28;20230;-86
2023/01/10 07:41:55;;;;;;;0.50;0.50;;;7.60;91.90;8.50;96135.00;;;;5087537;28;20347;-90
2023/01/10 07:44:43;;;;;;;0.20;0.20;;;7.60;92.10;8.90;96153.00;;;;5082789;28;20211;-86
2023/01/10 07:47:32;;;;;;;0.93;0.30;;;7.60;92.10;8.40;96177.00;;;;5085968;28;20219;-91
2023/01/10 07:50:21;;;;;;;0.30;0.20;;;7.60;91.40;9.20;96173.00;;;;5094134;28;20665;-87
2023/01/10 07:53:10;;;;;;;0.20;0.20;;;7.70;91.60;8.90;96164.00;;;;5078222;28;20199;-87
2023/01/10 07:56:02;;;;;;;0.20;0.20;;;7.70;91.50;8.90;96153.00;;;;5088302;28;20221;-87
2023/01/10 07:58:50;;;;;;;0.30;0.30;;;7.80;91.60;9.00;96194.00;;;;5090961;28;20289;-90
2023/01/10 08:01:39;;;;;;;0.20;0.20;;;7.80;91.20;9.30;96200.00;;;;5082123;28;20676;-86
2023/01/10 08:04:28;;;;;;;0.53;0.50;;;7.90;91.70;9.00;96206.00;;;;5082872;28;20671;-88
2023/01/10 08:07:17;;;;;;;2.53;0.40;;;7.80;91.30;9.40;96206.00;;;;5082397;28;20220;-86
2023/01/10 08:10:08;;;;;;;1.00;0.80;;;7.90;91.90;9.60;96228.00;;;;5088122;28;20227;-87
2023/01/10 08:12:59;;;;;;;0.40;0.40;;;8.00;92.00;9.30;96220.00;;;;5063395;28;20222;-86
2023/01/10 08:16:05;;;;;;;0.23;0.23;;;8.00;92.00;9.30;96220.00;;;;5076614;28;20207;-86
2023/01/10 08:18:54;;;;;;;0.20;0.20;;;7.90;91.80;9.70;96219.00;;;;5079281;28;20684;-86
2023/01/10 08:21:43;;;;;;;0.60;0.30;;;8.00;92.00;9.40;96223.00;;;;5090426;28;20265;-86
2023/01/10 08:24:32;;;;;;;0.30;0.30;;;8.00;91.90;9.40;96254.00;;;;5080890;28;20207;-87
2023/01/10 08:27:21;;;;;;;0.20;0.20;;;8.00;92.20;9.00;96254.00;;;;5089161;28;20220;-88
2023/01/10 08:30:12;;;;;;;0.20;0.20;;;8.00;91.80;9.20;96258.00;;;;5090866;28;20202;-86
2023/01/10 08:33:03;;;;;;;0.30;0.30;;;8.00;91.80;9.50;96279.00;;;;5089986;28;20635;-86
2023/01/10 08:35:51;;;;;;;0.20;0.20;;;8.00;92.30;9.10;96269.00;;;;5088056;28;20195;-85
2023/01/10 08:38:40;;;;;;;0.27;0.27;;;8.00;92.10;8.80;96286.00;;;;5087201;28;20218;-91
2023/01/10 08:41:30;;;;;;;0.20;0.20;;;8.00;92.20;8.50;96301.00;;;;5090124;28;20239;-87
2023/01/10 08:44:19;;;;;;;0.33;0.33;;;7.90;91.80;9.30;96288.00;;;;5085393;28;20215;-86
2023/01/10 08:47:09;;;;;;;0.27;0.27;;;7.90;92.30;9.10;96305.00;;;;5084859;28;20214;-86
2023/01/10 08:49:57;;;;;;;0.37;0.37;;;7.90;92.20;9.60;96306.00;;;;5089266;28;20210;-86
2023/01/10 08:52:46;;;;;;;0.33;0.33;;;8.00;92.30;9.20;96312.00;;;;5090556;28;20669;-87
2023/01/10 08:55:35;;;;;;;1.70;0.40;;;8.00;92.10;9.70;96318.00;;;;5085578;28;20283;-87
2023/01/10 08:58:23;;;;;;;0.93;0.40;;;8.10;92.60;9.50;96320.00;;;;5090948;28;20338;-85
2023/01/10 09:01:13;;;;;;;0.60;0.60;;;8.20;92.80;9.80;96340.00;;;;5081182;28;20202;-86
2023/01/10 09:04:04;;;;;;;2.53;0.40;;;8.20;93.10;9.90;96341.00;;;;5081161;28;20207;-86
2023/01/10 09:06:52;;;;;;;0.30;0.30;;;8.20;93.20;10.20;96351.00;;;;5081635;28;20254;-87
2023/01/10 09:09:41;;;;;;;0.33;0.33;;;8.30;93.30;10.10;96372.00;;;;5074439;28;20207;-86
2023/01/10 09:15:38;;;;;;;0.40;0.30;;;8.40;91.40;9.70;96364.00;;;;5088629;28;20211;-86
2023/01/10 09:18:27;;;;;;;0.20;0.20;;;8.40;91.50;9.30;96359.00;;;;5085346;28;20302;-88
2023/01/10 09:21:17;;;;;;;0.57;0.40;;;8.40;90.60;9.80;96375.00;;;;5091612;28;20202;-87
2023/01/10 09:24:07;;;;;;;0.20;0.20;;;8.40;91.00;10.00;96415.00;;;;5102421;28;20585;-86
2023/01/10 09:26:56;;;;;;;0.20;0.20;;;8.50;91.20;9.60;96389.00;;;;5089127;28;20842;-85
2023/01/10 09:29:44;;;;;;;0.50;0.50;;;8.40;90.40;10.00;96397.00;;;;5091631;28;20206;-86
2023/01/10 09:32:33;;;;;;;0.43;0.30;;;8.50;90.80;10.20;96413.00;;;;5092279;28;20195;-86
2023/01/10 09:35:23;;;;;;;1.07;0.20;;;8.50;90.70;9.90;96410.00;;;;5088599;28;20200;-86
2023/01/10 09:38:16;;;;;;;1.70;0.27;;;8.60;90.40;10.20;96425.00;;;;5087197;28;20315;-86
2023/01/10 09:41:47;;;;;;;0.30;0.30;;;8.70;90.70;9.40;96413.00;;;;5090467;28;20198;-87
2023/01/10 09:44:48;;;;;;;0.20;0.20;;;8.70;90.00;10.00;96415.00;;;;5082881;28;20248;-87
2023/01/10 09:47:47;;;;;;;0.30;0.30;;;8.70;90.70;10.50;96435.00;;;;5092210;28;20793;-86
2023/01/10 09:50:48;;;;;;;0.20;0.20;;;8.80;90.70;10.90;96438.00;;;;5081310;28;20214;-85
2023/01/10 09:53:42;;;;;;;0.20;0.20;;;9.00;91.10;10.40;96435.00;;;;5087529;28;20211;-86
2023/01/10 09:56:33;;;;;;;0.30;0.30;;;9.00;90.00;10.30;96434.00;;;;5089144;28;20227;-86
2023/01/10 09:59:25;;;;;;;0.40;0.40;;;9.00;90.20;10.00;96439.00;;;;5098397;28;20225;-87
2023/01/10 10:02:27;;;;;;;0.77;0.40;;;8.90;90.20;10.60;96436.00;;;;5085658;28;20199;-88
2023/01/10 10:05:21;;;;;;;0.40;0.40;;;9.00;90.40;11.20;96449.00;;;;5085571;28;20241;-86
2023/01/10 10:08:17;;;;;;;1.40;0.50;;;9.20;90.80;11.10;96453.00;;;;5090544;28;20240;-86
2023/01/10 10:11:34;;;;;;;1.63;0.33;;;9.30;90.20;10.30;96461.00;;;;5095293;28;20687;-86
2023/01/10 10:14:43;;;;;;;0.30;0.27;;;9.20;90.00;11.00;96461.00;;;;5080763;28;20246;-86
2023/01/10 10:17:43;;;;;;;0.30;0.30;;;9.20;90.20;11.20;96460.00;;;;5087981;28;20227;-87
2023/01/10 10:20:49;;;;;;;1.00;0.30;;;9.40;90.20;11.20;96470.00;;;;5084547;28;20805;-86
2023/01/10 10:24:00;;;;;;;3.23;0.60;;;9.50;90.30;11.40;96468.00;;;;5088484;28;20247;-86
2023/01/10 10:26:58;;;;;;;0.43;0.30;;;9.60;90.70;11.20;96478.00;;;;5085431;28;20218;-86
2023/01/10 10:30:16;;;;;;;0.20;0.20;;;9.60;90.70;11.20;96461.00;;;;5089146;28;20206;-87
2023/01/10 10:33:29;;;;;;;0.20;0.20;;;9.60;90.60;11.10;96476.00;;;;5085053;28;20248;-87
2023/01/10 10:36:23;;;;;;;0.30;0.30;;;9.80;90.40;11.90;96493.00;;;;5083996;28;20219;-86
2023/01/10 10:39:18;;;;;;;0.20;0.20;;;10.10;90.10;11.90;96477.00;;;;5081010;28;20223;-86
2023/01/10 10:42:15;;;;;;;0.40;0.33;;;10.30;89.80;12.50;96497.00;;;;5084286;28;20207;-86
2023/01/10 10:45:14;;;;;;;1.17;0.67;;;10.80;90.10;12.80;96511.00;;;;5081565;28;20265;-86
2023/01/10 10:48:13;;;;;;;0.30;0.30;;;11.30;87.60;12.20;96517.00;;;;5082936;28;20732;-87
2023/01/10 10:51:07;;;;;;;2.73;0.30;;;11.50;84.30;12.80;96512.00;;;;5079325;28;20588;-87
2023/01/10 10:53:57;;;;;;;0.30;0.30;;;11.50;85.20;12.10;96508.00;;;;5082674;28;20919;-87
2023/01/10 10:56:47;;;;;;;0.37;0.30;;;11.40;84.70;12.00;96502.00;;;;5083964;28;20211;-86
2023/01/10 10:59:38;;;;;;;0.97;0.30;;;11.40;85.60;12.80;96510.00;;;;5083229;28;20219;-86
2023/01/10 11:02:29;;;;;;;0.20;0.20;;;11.40;86.80;12.90;96526.00;;;;5083216;28;20695;-86
2023/01/10 11:05:23;;;;;;;0.83;0.30;;;11.60;84.80;12.90;96520.00;;;;5084519;28;20377;-86
2023/01/10 11:08:15;;;;;;;0.30;0.30;;;11.70;83.30;12.40;96533.00;;;;5078344;28;20200;-87
2023/01/10 11:11:07;;;;;;;0.20;0.20;;;11.60;80.60;11.80;96528.00;;;;5085518;28;20210;-86
2023/01/10 11:13:59;;;;;;;0.20;0.20;;;11.30;79.80;11.80;96518.00;;;;5086513;28;20571;-87
2023/01/10 11:16:49;;;;;;;0.30;0.30;;;11.00;80.50;11.70;96523.00;;;;5086980;28;20254;-86
2023/01/10 11:19:38;;;;;;;0.30;0.30;;;10.80;81.70;12.10;96518.00;;;;5086731;28;20704;-86
2023/01/10 11:22:30;;;;;;;0.30;0.20;;;10.70;83.30;12.30;96538.00;;;;5088892;28;20214;-86
2023/01/10 11:25:23;;;;;;;0.20;0.20;;;10.80;83.10;11.60;96542.00;;;;5088843;28;20187;-89
2023/01/10 11:28:17;;;;;;;0.40;0.33;;;10.80;80.20;12.00;96531.00;;;;5084181;28;20204;-87
2023/01/10 11:31:07;;;;;;;0.40;0.40;;;10.90;81.00;12.50;96560.00;;;;5089303;28;20199;-87
2023/01/10 11:33:58;;;;;;;0.30;0.30;;;10.90;81.20;12.10;96544.00;;;;5086032;28;20210;-87
2023/01/10 11:36:56;;;;;;;0.30;0.30;;;10.90;80.00;12.30;96546.00;;;;5081758;28;20238;-87
2023/01/10 11:39:45;;;;;;;0.30;0.30;;;11.20;79.80;11.70;96557.00;;;;5080583;28;20305;-88
2023/01/10 11:42:33;;;;;;;0.20;0.20;;;11.20;77.70;12.20;96562.00;;;;5086229;28;20196;-87
2023/01/10 11:45:30;;;;;;;3.00;0.27;;;11.10;79.40;12.10;96555.00;;;;5085818;28;20199;-87
2023/01/10 11:48:23;;;;;;;0.23;0.23;;;11.10;78.70;12.90;96575.00;;;;5085922;28;20215;-89
2023/01/10 11:51:37;;;;;;;0.50;0.37;;;11.50;78.20;12.50;96564.00;;;;5088339;28;20207;-88
2023/01/10 11:54:27;;;;;;;0.70;0.30;;;11.60;78.20;13.10;96512.00;;;;5088178;28;20199;-92
2023/01/10 11:57:19;;;;;;;0.30;0.30;;;12.00;78.80;13.60;96536.00;;;;5088035;28;20239;-87
2023/01/10 12:00:11;;;;;;;0.20;0.20;;;12.20;77.80;13.80;96554.00;;;;5085526;28;20242;-88
2023/01/10 12:03:01;;;;;;;0.27;0.27;;;12.40;76.80;14.20;96547.00;;;;5086939;28;20211;-88
2023/01/10 12:05:56;;;;;;;1.80;0.27;;;12.80;76.10;14.50;96558.00;;;;5087054;28;20210;-88
2023/01/10 12:08:48;;;;;;;0.30;0.30;;;13.20;72.90;12.70;96551.00;;;;5087111;28;20203;-90
2023/01/10 12:11:37;;;;;;;0.40;0.30;;;13.10;71.90;14.80;96560.00;;;;5086525;28;20663;-87
2023/01/10 12:14:28;;;;;;;0.43;0.30;;;13.20;73.60;13.00;96553.00;;;;5086702;28;20208;-86
2023/01/10 12:17:24;;;;;;;0.20;0.20;;;13.20;72.10;13.70;96546.00;;;;5087256;28;20280;-87
2023/01/10 12:20:15;;;;;;;2.00;0.47;;;13.10;74.00;14.40;96550.00;;;;5085365;28;20233;-86
2023/01/10 12:23:08;;;;;;;0.20;0.20;;;13.40;72.00;14.40;96561.00;;;;5089363;28;20208;-87
2023/01/10 12:26:00;;;;;;;0.40;0.37;;;13.60;71.00;12.50;96556.00;;;;5088571;28;20277;-93
2023/01/10 12:29:07;;;;;;;0.20;0.20;;;13.20;69.90;14.70;96581.00;;;;5087795;28;20199;-87
2023/01/10 12:31:58;;;;;;;0.20;0.20;;;13.20;72.00;12.20;96549.00;;;;5088000;28;20199;-90
2023/01/10 12:34:55;;;;;;;0.27;0.27;;;12.90;70.30;13.40;96578.00;;;;5090783;28;20191;-87
2023/01/10 12:37:50;;;;;;;0.30;0.20;;;12.50;72.00;13.90;96589.00;;;;5093067;28;20219;-86
2023/01/10 12:40:49;;;;;;;0.40;0.40;;;12.80;71.10;15.40;96590.00;;;;5092300;28;20269;-87
2023/01/10 12:46:55;;;;;;;0.23;0.23;;;13.70;68.70;11.70;96580.00;;;;5087111;28;20211;-90
2023/01/10 12:50:05;;;;;;;1.27;0.50;;;12.50;68.50;14.90;96593.00;;;;5087496;28;20199;-88
2023/01/10 12:53:02;;;;;;;0.23;0.23;;;12.90;70.80;15.80;96608.00;;;;5093374;28;20191;-88
2023/01/10 12:55:56;;;;;;;0.20;0.20;;;13.40;71.00;16.20;96608.00;;;;5093507;28;20698;-86
2023/01/10 12:58:49;;;;;;;0.60;0.37;;;14.20;69.10;15.70;96606.00;;;;5092320;28;20199;-85
2023/01/10 13:01:41;;;;;;;0.40;0.40;;;14.40;68.30;15.40;96607.00;;;;5092382;28;20567;-92
2023/01/10 13:04:34;;;;;;;0.20;0.20;;;14.60;65.90;14.90;96593.00;;;;5081982;28;20685;-85
2023/01/10 13:07:28;;;;;;;0.20;0.20;;;14.50;65.40;15.00;96602.00;;;;5091254;28;20234;-85
2023/01/10 13:10:21;;;;;;;0.40;0.20;;;14.30;65.20;17.20;96656.00;;;;5092683;28;20206;-86
2023/01/10 13:13:20;;;;;;;0.40;0.33;;;14.80;67.00;14.90;96646.00;;;;5091038;28;20211;-86
2023/01/10 13:16:26;;;;;;;0.87;0.30;;;14.80;64.40;16.80;96617.00;;;;5089399;28;20230;-86